Time;durP1;ratioP1;P1;durP2;ratioP2;P2;SDS_P1;SDS_P2;PMS_P1;PMS_P2;Temp;Humidity;BMP_temperature;BMP_pressure;BME280_temperature;BME280_humidity;BME280_pressure;Samples;Min_cycle;Max_cycle;Signal;HPM_P1;HPM_P2
2022/01/08 00:01:32;;;;;;;12.27;4.45;;;;;;;;;;5025461;28;20061;-50
2022/01/08 00:03:59;;;;;;;11.23;4.18;;;;;;;;;;5021748;28;20145;-53
2022/01/08 00:06:25;;;;;;;11.32;3.92;;;;;;;;;;5024117;28;20091;-57
2022/01/08 00:08:54;;;;;;;12.23;4.65;;;;;;;;;;5021978;28;20041;-57
2022/01/08 00:11:25;;;;;;;8.52;4.07;;;;;;;;;;5025574;28;20065;-52
2022/01/08 00:13:52;;;;;;;8.85;4.07;;;;;;;;;;5033003;28;21515;-54
2022/01/08 00:16:19;;;;;;;12.18;4.22;;;;;;;;;;5026036;28;20061;-55
2022/01/08 00:18:45;;;;;;;11.75;4.60;;;;;;;;;;5023959;28;20057;-59
2022/01/08 00:21:13;;;;;;;14.38;4.97;;;;;;;;;;5024308;28;20145;-55
2022/01/08 00:23:39;;;;;;;14.25;4.43;;;;;;;;;;5025617;28;20049;-53
2022/01/08 00:26:06;;;;;;;11.07;4.80;;;;;;;;;;5023186;28;20057;-54
2022/01/08 00:28:34;;;;;;;15.73;4.18;;;;;;;;;;5027466;28;20060;-53
2022/01/08 00:31:00;;;;;;;12.15;4.43;;;;;;;;;;5021857;28;20065;-58
2022/01/08 00:33:27;;;;;;;9.82;4.30;;;;;;;;;;5025947;28;20053;-55
2022/01/08 00:35:53;;;;;;;14.75;4.43;;;;;;;;;;5021390;28;20050;-57
2022/01/08 00:38:21;;;;;;;11.63;4.47;;;;;;;;;;5024915;28;20064;-58
2022/01/08 00:40:48;;;;;;;15.35;4.75;;;;;;;;;;5021274;28;20053;-53
2022/01/08 00:43:14;;;;;;;11.90;5.18;;;;;;;;;;5025539;28;20064;-54
2022/01/08 00:45:42;;;;;;;12.07;4.85;;;;;;;;;;5021726;28;20159;-50
2022/01/08 00:48:10;;;;;;;12.20;5.10;;;;;;;;;;5025160;28;20422;-52
2022/01/08 00:50:36;;;;;;;15.40;5.20;;;;;;;;;;5021402;28;20331;-54
2022/01/08 00:53:03;;;;;;;8.50;4.28;;;;;;;;;;5025381;28;20053;-56
2022/01/08 00:55:29;;;;;;;11.10;4.40;;;;;;;;;;5021357;28;20132;-53
2022/01/08 00:57:56;;;;;;;9.20;4.50;;;;;;;;;;5041011;28;20076;-58
2022/01/08 01:00:23;;;;;;;12.90;3.97;;;;;;;;;;5022251;28;20136;-55
2022/01/08 01:02:53;;;;;;;12.20;4.72;;;;;;;;;;5024196;28;20077;-56
2022/01/08 01:05:21;;;;;;;8.48;3.97;;;;;;;;;;5024719;28;20059;-51
2022/01/08 01:07:48;;;;;;;9.98;4.57;;;;;;;;;;5020657;28;20123;-52
2022/01/08 01:10:15;;;;;;;8.43;3.75;;;;;;;;;;5025011;28;20476;-55
2022/01/08 01:12:42;;;;;;;12.43;4.18;;;;;;;;;;5020695;28;20053;-50
2022/01/08 01:15:10;;;;;;;10.25;4.97;;;;;;;;;;5024774;28;20050;-55
2022/01/08 01:17:36;;;;;;;12.27;4.38;;;;;;;;;;5021195;28;20070;-53
2022/01/08 01:20:05;;;;;;;12.35;4.00;;;;;;;;;;5025734;28;20149;-51
2022/01/08 01:22:42;;;;;;;12.88;4.82;;;;;;;;;;5021939;28;20061;-50
2022/01/08 01:25:12;;;;;;;13.07;4.90;;;;;;;;;;5025583;28;20058;-55
2022/01/08 01:27:56;;;;;;;11.32;4.47;;;;;;;;;;5019577;28;20060;-54
2022/01/08 01:30:38;;;;;;;13.27;5.20;;;;;;;;;;5025058;28;20053;-52
2022/01/08 01:41:40;;;;;;;8.38;4.20;;;;;;;;;;5017541;28;20046;-52
2022/01/08 01:47:01;;;;;;;11.02;4.65;;;;;;;;;;5021629;28;20116;-57
2022/01/08 01:49:27;;;;;;;9.98;4.28;;;;;;;;;;5019909;28;20145;-56
2022/01/08 01:51:56;;;;;;;12.40;4.60;;;;;;;;;;5029424;28;20037;-55
2022/01/08 01:54:22;;;;;;;10.07;4.20;;;;;;;;;;5009690;28;20049;-52
2022/01/08 01:56:49;;;;;;;14.07;4.43;;;;;;;;;;5032132;28;20045;-57
2022/01/08 01:59:16;;;;;;;10.50;4.13;;;;;;;;;;5039856;28;20064;-55
2022/01/08 02:01:42;;;;;;;9.27;3.75;;;;;;;;;;5036186;28;20090;-60
2022/01/08 02:04:09;;;;;;;11.10;4.55;;;;;;;;;;5037052;28;20187;-51
2022/01/08 02:06:35;;;;;;;11.98;3.95;;;;;;;;;;5044454;28;20068;-49
2022/01/08 02:09:03;;;;;;;10.52;4.38;;;;;;;;;;5032219;28;20057;-54
2022/01/08 02:11:30;;;;;;;12.32;4.28;;;;;;;;;;5034224;28;20142;-54
2022/01/08 02:14:01;;;;;;;9.25;3.67;;;;;;;;;;5034280;28;20080;-55
2022/01/08 02:16:28;;;;;;;10.60;3.95;;;;;;;;;;5038714;28;20079;-57
2022/01/08 02:18:55;;;;;;;14.68;4.15;;;;;;;;;;5031898;28;20148;-55
2022/01/08 02:21:26;;;;;;;10.32;4.20;;;;;;;;;;5035791;28;20063;-51
2022/01/08 02:23:52;;;;;;;16.02;4.13;;;;;;;;;;5037819;28;20080;-53
2022/01/08 02:26:19;;;;;;;14.43;4.13;;;;;;;;;;5043645;28;20107;-52
2022/01/08 02:28:45;;;;;;;13.95;4.00;;;;;;;;;;5027103;28;20077;-50
2022/01/08 02:31:20;;;;;;;9.65;3.53;;;;;;;;;;5023539;28;20142;-51
2022/01/08 02:33:47;;;;;;;8.88;3.60;;;;;;;;;;5027328;28;20148;-54
2022/01/08 02:36:13;;;;;;;10.23;3.42;;;;;;;;;;5023355;28;20050;-56
2022/01/08 02:38:42;;;;;;;15.00;4.22;;;;;;;;;;5027313;28;20057;-51
2022/01/08 02:41:09;;;;;;;9.48;3.33;;;;;;;;;;5039813;28;20061;-50
2022/01/08 02:43:41;;;;;;;7.60;3.25;;;;;;;;;;5028197;28;20053;-52
2022/01/08 02:46:07;;;;;;;8.65;3.17;;;;;;;;;;5023942;28;20092;-56
2022/01/08 02:48:34;;;;;;;8.35;2.90;;;;;;;;;;5027115;28;20057;-53
2022/01/08 02:51:00;;;;;;;9.52;3.30;;;;;;;;;;5024719;28;20099;-54
2022/01/08 02:53:27;;;;;;;11.75;3.72;;;;;;;;;;5027058;28;20080;-55
2022/01/08 02:55:55;;;;;;;8.25;3.20;;;;;;;;;;5023340;28;20240;-51
2022/01/08 02:58:25;;;;;;;10.73;3.53;;;;;;;;;;5027057;28;20053;-56
2022/01/08 03:00:52;;;;;;;14.82;3.67;;;;;;;;;;5021770;28;20312;-54
2022/01/08 03:03:18;;;;;;;10.40;3.60;;;;;;;;;;5022772;28;20171;-53
2022/01/08 03:05:45;;;;;;;10.77;3.97;;;;;;;;;;5022820;28;20065;-53
2022/01/08 03:08:12;;;;;;;8.88;3.45;;;;;;;;;;5026459;28;20060;-54
2022/01/08 03:10:38;;;;;;;7.53;3.40;;;;;;;;;;5023273;28;20080;-53
2022/01/08 03:13:07;;;;;;;8.85;3.55;;;;;;;;;;5026559;28;20046;-52
2022/01/08 03:15:35;;;;;;;8.80;3.67;;;;;;;;;;5027356;28;20064;-55
2022/01/08 03:18:02;;;;;;;16.50;3.50;;;;;;;;;;5023930;28;20073;-54
2022/01/08 03:20:28;;;;;;;7.70;3.75;;;;;;;;;;5028568;28;20049;-58
2022/01/08 03:23:01;;;;;;;9.90;3.90;;;;;;;;;;5024832;28;20053;-58
2022/01/08 03:25:27;;;;;;;7.47;3.03;;;;;;;;;;5026847;28;20122;-55
2022/01/08 03:27:54;;;;;;;7.32;3.33;;;;;;;;;;5022146;28;20064;-60
2022/01/08 03:30:22;;;;;;;8.65;3.70;;;;;;;;;;5026483;28;20057;-58
2022/01/08 03:32:49;;;;;;;9.55;3.08;;;;;;;;;;5022395;28;20056;-58
2022/01/08 03:35:16;;;;;;;11.18;3.45;;;;;;;;;;5026365;28;20051;-57
2022/01/08 03:37:44;;;;;;;6.00;3.15;;;;;;;;;;5022831;28;20073;-56
2022/01/08 03:40:10;;;;;;;9.68;3.20;;;;;;;;;;5026181;28;20049;-54
2022/01/08 03:42:37;;;;;;;8.98;2.97;;;;;;;;;;5022180;28;20053;-52
2022/01/08 03:45:03;;;;;;;7.25;3.25;;;;;;;;;;5026190;28;20056;-54
2022/01/08 03:47:53;;;;;;;7.82;3.10;;;;;;;;;;5021982;28;20054;-55
2022/01/08 03:50:18;;;;;;;10.25;3.10;;;;;;;;;;5016539;28;20053;-53
2022/01/08 03:52:46;;;;;;;7.63;3.20;;;;;;;;;;5038739;28;20099;-53
2022/01/08 03:55:13;;;;;;;12.45;3.60;;;;;;;;;;5025992;28;20106;-55
2022/01/08 03:57:39;;;;;;;6.15;2.95;;;;;;;;;;5022066;28;20042;-52
2022/01/08 04:00:06;;;;;;;10.07;3.20;;;;;;;;;;5025742;28;20087;-53
2022/01/08 04:02:34;;;;;;;7.10;3.00;;;;;;;;;;5025461;28;20073;-54
2022/01/08 04:05:01;;;;;;;8.50;2.80;;;;;;;;;;5028661;28;20056;-52
2022/01/08 04:07:27;;;;;;;12.43;2.53;;;;;;;;;;5028414;28;20295;-54
2022/01/08 04:09:54;;;;;;;12.15;2.70;;;;;;;;;;5025515;28;20067;-56
2022/01/08 04:12:30;;;;;;;5.80;2.20;;;;;;;;;;5028812;28;20084;-53
2022/01/08 04:15:05;;;;;;;7.22;2.72;;;;;;;;;;5028074;28;20057;-54
2022/01/08 04:17:34;;;;;;;9.15;2.47;;;;;;;;;;5029148;28;20060;-52
2022/01/08 04:20:00;;;;;;;11.60;2.58;;;;;;;;;;5036934;28;20068;-51
2022/01/08 04:22:28;;;;;;;11.35;2.70;;;;;;;;;;5062295;28;20056;-55
2022/01/08 04:24:56;;;;;;;10.75;2.70;;;;;;;;;;5030777;28;20064;-57
2022/01/08 04:27:27;;;;;;;8.70;2.47;;;;;;;;;;5028503;28;20057;-56
2022/01/08 04:29:54;;;;;;;6.75;2.42;;;;;;;;;;5025271;28;20053;-53
2022/01/08 04:32:20;;;;;;;13.85;2.45;;;;;;;;;;5029038;28;20046;-52
2022/01/08 04:34:48;;;;;;;8.05;2.33;;;;;;;;;;5025624;28;20130;-55
2022/01/08 04:37:15;;;;;;;9.67;2.77;;;;;;;;;;5028420;28;20132;-54
2022/01/08 04:39:42;;;;;;;5.95;2.13;;;;;;;;;;5024769;28;20476;-53
2022/01/08 04:42:08;;;;;;;10.23;2.47;;;;;;;;;;5045522;28;20053;-57
2022/01/08 04:44:35;;;;;;;10.52;2.83;;;;;;;;;;5040992;28;20049;-56
2022/01/08 04:47:01;;;;;;;5.85;2.50;;;;;;;;;;5030638;28;20086;-54
2022/01/08 04:49:28;;;;;;;7.47;2.45;;;;;;;;;;5026884;28;20114;-58
2022/01/08 04:51:56;;;;;;;7.93;2.63;;;;;;;;;;5061953;28;20057;-59
2022/01/08 04:54:23;;;;;;;8.13;2.13;;;;;;;;;;5052228;28;20060;-61
2022/01/08 04:56:51;;;;;;;9.35;2.55;;;;;;;;;;5025789;28;20103;-61
2022/01/08 04:59:18;;;;;;;5.90;2.33;;;;;;;;;;5028235;28;20053;-57
2022/01/08 05:01:45;;;;;;;7.13;2.40;;;;;;;;;;5039398;28;20510;-53
2022/01/08 05:04:11;;;;;;;6.22;2.38;;;;;;;;;;5025077;28;20577;-57
2022/01/08 05:06:38;;;;;;;5.88;1.95;;;;;;;;;;5020652;28;20054;-52
2022/01/08 05:09:06;;;;;;;6.70;2.60;;;;;;;;;;5024636;28;20061;-54
2022/01/08 05:11:32;;;;;;;6.18;2.33;;;;;;;;;;5021070;28;20053;-53
2022/01/08 05:13:59;;;;;;;7.85;2.70;;;;;;;;;;5039301;28;20053;-58
2022/01/08 05:16:28;;;;;;;7.97;2.80;;;;;;;;;;5031293;28;20074;-55
2022/01/08 05:18:55;;;;;;;8.10;2.42;;;;;;;;;;5024669;28;20096;-53
2022/01/08 05:21:25;;;;;;;8.15;2.42;;;;;;;;;;5021525;28;20053;-55
2022/01/08 05:23:51;;;;;;;9.45;2.85;;;;;;;;;;5025239;28;20054;-55
2022/01/08 05:26:19;;;;;;;7.70;2.58;;;;;;;;;;5024732;28;20049;-56
2022/01/08 05:28:48;;;;;;;5.38;2.35;;;;;;;;;;5027556;28;20053;-55
2022/01/08 05:31:17;;;;;;;7.82;2.53;;;;;;;;;;5024711;28;20045;-54
2022/01/08 05:33:44;;;;;;;6.10;2.38;;;;;;;;;;5028105;28;20068;-57
2022/01/08 05:36:11;;;;;;;9.70;2.65;;;;;;;;;;5026064;28;20045;-54
2022/01/08 05:38:37;;;;;;;13.77;2.78;;;;;;;;;;5008623;28;20050;-55
2022/01/08 05:41:04;;;;;;;11.93;2.53;;;;;;;;;;5023947;28;20076;-54
2022/01/08 05:43:32;;;;;;;5.97;2.40;;;;;;;;;;5036482;28;20056;-57
2022/01/08 05:45:58;;;;;;;8.02;2.20;;;;;;;;;;5041881;28;20089;-53
2022/01/08 05:48:26;;;;;;;9.50;2.20;;;;;;;;;;5041680;28;20111;-55
2022/01/08 05:50:53;;;;;;;5.95;2.20;;;;;;;;;;5028894;28;20088;-54
2022/01/08 05:53:20;;;;;;;10.85;2.40;;;;;;;;;;5024070;28;20049;-55
2022/01/08 05:55:49;;;;;;;7.38;2.28;;;;;;;;;;5028132;28;20049;-53
2022/01/08 05:58:15;;;;;;;8.32;2.38;;;;;;;;;;5024039;28;20168;-52
2022/01/08 06:00:43;;;;;;;8.75;2.65;;;;;;;;;;5027083;28;20049;-56
2022/01/08 06:03:10;;;;;;;5.23;1.93;;;;;;;;;;5024101;28;20060;-54
2022/01/08 06:05:36;;;;;;;6.40;2.03;;;;;;;;;;5028166;28;20514;-51
2022/01/08 06:08:03;;;;;;;10.55;2.10;;;;;;;;;;5023751;28;20042;-53
2022/01/08 06:10:30;;;;;;;5.80;2.03;;;;;;;;;;5029067;28;20049;-56
2022/01/08 06:12:56;;;;;;;4.03;1.88;;;;;;;;;;5026752;28;20069;-58
2022/01/08 06:15:23;;;;;;;7.40;2.00;;;;;;;;;;5029829;28;20052;-60
2022/01/08 06:17:51;;;;;;;5.55;2.15;;;;;;;;;;5023776;28;20049;-59
2022/01/08 06:20:17;;;;;;;5.28;2.10;;;;;;;;;;5028553;28;20111;-58
2022/01/08 06:22:44;;;;;;;5.50;1.90;;;;;;;;;;5028493;28;20049;-57
2022/01/08 06:25:10;;;;;;;10.32;2.22;;;;;;;;;;5023532;28;20107;-58
2022/01/08 06:27:37;;;;;;;7.60;2.40;;;;;;;;;;5027377;28;20065;-58
2022/01/08 06:30:04;;;;;;;7.03;1.75;;;;;;;;;;5023612;28;20061;-59
2022/01/08 06:32:31;;;;;;;5.90;2.30;;;;;;;;;;5027796;28;20068;-57
2022/01/08 06:35:01;;;;;;;9.30;2.17;;;;;;;;;;5023113;28;20140;-59
2022/01/08 06:37:27;;;;;;;7.25;2.00;;;;;;;;;;5026970;28;20064;-54
2022/01/08 06:39:54;;;;;;;6.63;2.22;;;;;;;;;;5019599;28;20081;-55
2022/01/08 06:42:21;;;;;;;7.25;2.30;;;;;;;;;;5043744;28;20103;-51
2022/01/08 06:44:47;;;;;;;8.80;2.15;;;;;;;;;;5039682;28;20350;-56
2022/01/08 06:47:14;;;;;;;4.80;1.73;;;;;;;;;;5026864;28;20095;-53
2022/01/08 06:49:40;;;;;;;5.30;1.80;;;;;;;;;;5023038;28;20080;-50
2022/01/08 06:52:08;;;;;;;11.50;2.15;;;;;;;;;;5027228;28;20107;-52
2022/01/08 06:54:35;;;;;;;5.93;2.10;;;;;;;;;;5023583;28;20073;-52
2022/01/08 06:57:01;;;;;;;15.95;2.80;;;;;;;;;;5026716;28;20064;-58
2022/01/08 06:59:28;;;;;;;14.18;4.55;;;;;;;;;;5019886;28;20104;-55
2022/01/08 07:01:54;;;;;;;11.43;3.47;;;;;;;;;;5032004;28;20058;-53
2022/01/08 07:04:21;;;;;;;5.60;2.10;;;;;;;;;;5025304;28;20130;-53
2022/01/08 07:06:47;;;;;;;6.82;2.30;;;;;;;;;;5030253;28;20042;-52
2022/01/08 07:09:17;;;;;;;8.38;1.90;;;;;;;;;;5030170;28;20046;-52
2022/01/08 07:11:44;;;;;;;5.60;2.30;;;;;;;;;;5021392;28;20423;-53
2022/01/08 07:14:10;;;;;;;6.13;2.15;;;;;;;;;;5025878;28;20069;-52
2022/01/08 07:16:37;;;;;;;5.38;2.25;;;;;;;;;;5020093;28;20072;-54
2022/01/08 07:19:04;;;;;;;4.75;1.85;;;;;;;;;;5025203;28;20057;-54
2022/01/08 07:21:31;;;;;;;6.90;2.60;;;;;;;;;;5020589;28;20057;-55
2022/01/08 07:23:57;;;;;;;8.85;2.50;;;;;;;;;;5024938;28;20115;-55
2022/01/08 07:26:25;;;;;;;11.15;2.25;;;;;;;;;;5021962;28;20068;-51
2022/01/08 07:28:52;;;;;;;11.02;2.80;;;;;;;;;;5024985;28;20144;-53
2022/01/08 07:31:18;;;;;;;8.43;3.20;;;;;;;;;;5021890;28;20049;-52
2022/01/08 07:33:49;;;;;;;12.32;2.80;;;;;;;;;;5033289;28;20475;-56
2022/01/08 07:36:16;;;;;;;10.68;3.08;;;;;;;;;;5022856;28;20053;-53
2022/01/08 07:38:44;;;;;;;7.63;2.95;;;;;;;;;;5021426;28;20103;-52
2022/01/08 07:41:10;;;;;;;10.27;3.17;;;;;;;;;;5021261;28;20116;-57
2022/01/08 07:43:38;;;;;;;9.60;2.70;;;;;;;;;;5024888;28;20300;-54
2022/01/08 07:46:04;;;;;;;7.13;2.42;;;;;;;;;;5022969;28;20068;-56
2022/01/08 07:48:31;;;;;;;10.38;3.17;;;;;;;;;;5019195;28;20060;-56
2022/01/08 07:50:58;;;;;;;9.90;3.35;;;;;;;;;;5029568;28;20431;-52
2022/01/08 07:53:25;;;;;;;11.23;3.70;;;;;;;;;;5020356;28;20053;-57
2022/01/08 07:55:51;;;;;;;8.52;3.92;;;;;;;;;;5024698;28;20399;-59
2022/01/08 07:58:20;;;;;;;6.68;2.80;;;;;;;;;;5020105;28;20092;-54
2022/01/08 08:00:48;;;;;;;12.35;4.20;;;;;;;;;;5017622;28;20132;-54
2022/01/08 08:03:15;;;;;;;16.48;4.80;;;;;;;;;;5020204;28;20049;-50
2022/01/08 08:05:41;;;;;;;13.40;3.83;;;;;;;;;;5024479;28;20113;-55
2022/01/08 08:08:08;;;;;;;13.60;3.75;;;;;;;;;;5020865;28;20071;-57
2022/01/08 08:10:34;;;;;;;8.13;3.63;;;;;;;;;;5031224;28;20146;-53
2022/01/08 08:13:01;;;;;;;15.68;3.05;;;;;;;;;;5030906;28;20060;-54
2022/01/08 08:15:28;;;;;;;8.85;3.33;;;;;;;;;;5023913;28;20057;-52
2022/01/08 08:17:56;;;;;;;8.35;3.17;;;;;;;;;;5020031;28;20050;-52
2022/01/08 08:20:23;;;;;;;11.10;3.83;;;;;;;;;;5020266;28;20137;-56
2022/01/08 08:22:49;;;;;;;21.67;4.65;;;;;;;;;;5029223;28;20065;-55
2022/01/08 08:25:16;;;;;;;9.75;4.00;;;;;;;;;;5024779;28;20132;-55
2022/01/08 08:27:44;;;;;;;10.50;3.40;;;;;;;;;;5025114;28;20103;-56
2022/01/08 08:30:11;;;;;;;9.32;3.45;;;;;;;;;;5039269;28;20072;-57
2022/01/08 08:32:37;;;;;;;11.45;3.63;;;;;;;;;;5044872;28;20111;-54
2022/01/08 08:35:06;;;;;;;14.10;3.33;;;;;;;;;;5023539;28;20111;-53
2022/01/08 08:37:34;;;;;;;9.70;2.70;;;;;;;;;;5024122;28;20053;-54
2022/01/08 08:40:00;;;;;;;8.23;2.97;;;;;;;;;;5020271;28;20127;-51
2022/01/08 08:42:27;;;;;;;12.38;3.25;;;;;;;;;;5024619;28;20458;-57
2022/01/08 08:44:53;;;;;;;15.70;3.80;;;;;;;;;;5020271;28;20045;-58
2022/01/08 08:47:20;;;;;;;7.18;3.10;;;;;;;;;;5024044;28;20061;-52
2022/01/08 08:49:46;;;;;;;13.10;3.38;;;;;;;;;;5020648;28;20081;-54
2022/01/08 08:52:14;;;;;;;7.03;2.63;;;;;;;;;;5024582;28;20076;-51
2022/01/08 08:54:43;;;;;;;14.68;3.53;;;;;;;;;;5020440;28;20053;-53
2022/01/08 08:57:10;;;;;;;13.90;3.35;;;;;;;;;;5024846;28;20049;-49
2022/01/08 08:59:37;;;;;;;11.10;3.50;;;;;;;;;;5026745;28;20072;-53
2022/01/08 09:02:04;;;;;;;10.13;3.22;;;;;;;;;;5030123;28;20149;-55
2022/01/08 09:04:31;;;;;;;8.13;3.03;;;;;;;;;;5025432;28;21134;-50
2022/01/08 09:06:57;;;;;;;7.45;3.17;;;;;;;;;;5028006;28;20052;-54
2022/01/08 09:09:26;;;;;;;9.75;3.35;;;;;;;;;;5026428;28;20063;-53
2022/01/08 09:11:53;;;;;;;10.23;4.10;;;;;;;;;;5027581;28;20049;-54
2022/01/08 09:14:19;;;;;;;10.02;3.10;;;;;;;;;;5028868;28;20346;-52
2022/01/08 09:16:48;;;;;;;8.15;3.22;;;;;;;;;;5024643;28;20132;-53
2022/01/08 09:19:15;;;;;;;9.27;3.30;;;;;;;;;;5028569;28;20061;-53
2022/01/08 09:21:41;;;;;;;12.32;3.60;;;;;;;;;;5024449;28;20057;-53
2022/01/08 09:24:08;;;;;;;13.90;4.20;;;;;;;;;;5028456;28;20054;-54
2022/01/08 09:26:36;;;;;;;9.38;2.90;;;;;;;;;;5024846;28;20158;-54
2022/01/08 09:29:03;;;;;;;10.80;3.33;;;;;;;;;;5028601;28;20057;-51
2022/01/08 09:31:30;;;;;;;12.10;3.40;;;;;;;;;;5024775;28;20065;-55
2022/01/08 09:33:57;;;;;;;10.75;3.17;;;;;;;;;;5028712;28;20068;-54
2022/01/08 09:36:23;;;;;;;11.55;3.30;;;;;;;;;;5024484;28;20053;-51
2022/01/08 09:38:50;;;;;;;6.90;2.88;;;;;;;;;;5027695;28;20056;-53
2022/01/08 09:41:17;;;;;;;8.60;3.30;;;;;;;;;;5026907;28;20080;-55
2022/01/08 09:43:45;;;;;;;7.03;2.65;;;;;;;;;;5028067;28;20121;-56
2022/01/08 09:46:13;;;;;;;8.57;2.80;;;;;;;;;;5024100;28;20058;-48
2022/01/08 09:48:40;;;;;;;5.68;2.50;;;;;;;;;;5028464;28;20053;-55
2022/01/08 09:51:07;;;;;;;8.48;2.83;;;;;;;;;;5025254;28;20061;-54
2022/01/08 09:53:33;;;;;;;7.05;2.83;;;;;;;;;;5028880;28;20064;-58
2022/01/08 09:56:00;;;;;;;3.35;1.77;;;;;;;;;;5018185;28;20080;-53
2022/01/08 09:58:27;;;;;;;10.00;3.10;;;;;;;;;;5014145;28;20131;-52
2022/01/08 10:00:55;;;;;;;13.05;3.63;;;;;;;;;;5028151;28;20096;-56
2022/01/08 10:03:22;;;;;;;6.13;2.55;;;;;;;;;;5023640;28;20065;-55
2022/01/08 10:05:50;;;;;;;11.07;3.67;;;;;;;;;;5028223;28;20053;-56
2022/01/08 10:08:22;;;;;;;11.67;3.50;;;;;;;;;;5010116;28;20141;-54
2022/01/08 10:10:56;;;;;;;15.60;4.13;;;;;;;;;;5007020;28;20305;-55
2022/01/08 10:13:24;;;;;;;15.75;4.43;;;;;;;;;;5003979;28;20081;-51
2022/01/08 10:18:37;;;;;;;11.40;3.50;;;;;;;;;;5016242;28;20060;-53
2022/01/08 10:21:15;;;;;;;10.38;3.05;;;;;;;;;;5029735;28;20136;-53
2022/01/08 10:23:43;;;;;;;8.67;3.10;;;;;;;;;;5012721;28;20049;-52
2022/01/08 10:26:10;;;;;;;10.57;3.27;;;;;;;;;;5007855;28;20065;-56
2022/01/08 10:28:38;;;;;;;12.73;3.70;;;;;;;;;;5003610;28;20219;-52
2022/01/08 10:31:08;;;;;;;8.50;3.47;;;;;;;;;;5008129;28;20064;-52
2022/01/08 10:33:36;;;;;;;7.85;3.53;;;;;;;;;;5004021;28;20379;-53
2022/01/08 10:36:03;;;;;;;12.63;3.95;;;;;;;;;;5007429;28;20145;-52
2022/01/08 10:38:30;;;;;;;10.43;3.35;;;;;;;;;;5009198;28;20053;-57
2022/01/08 10:40:57;;;;;;;13.38;5.13;;;;;;;;;;5009897;28;20085;-52
2022/01/08 10:43:24;;;;;;;8.52;3.05;;;;;;;;;;5003423;28;20108;-53
2022/01/08 10:45:51;;;;;;;8.75;3.20;;;;;;;;;;5023522;28;20077;-54
2022/01/08 10:48:28;;;;;;;14.35;4.57;;;;;;;;;;5021431;28;20053;-51
2022/01/08 10:51:08;;;;;;;24.15;2.95;;;;;;;;;;4987487;28;20086;-49
2022/01/08 10:53:50;;;;;;;8.18;3.78;;;;;;;;;;4985192;28;20058;-56
2022/01/08 10:56:21;;;;;;;14.32;4.22;;;;;;;;;;5026706;28;20519;-52
2022/01/08 10:58:52;;;;;;;14.52;5.20;;;;;;;;;;5021978;28;20064;-54
2022/01/08 11:01:33;;;;;;;11.57;4.20;;;;;;;;;;5007116;28;20673;-54
2022/01/08 11:04:00;;;;;;;14.85;5.25;;;;;;;;;;5016877;28;20061;-55
2022/01/08 11:06:28;;;;;;;7.95;3.70;;;;;;;;;;5026616;28;20490;-54
2022/01/08 11:08:59;;;;;;;17.33;6.30;;;;;;;;;;5026735;28;20119;-54
2022/01/08 11:11:29;;;;;;;12.65;4.53;;;;;;;;;;5022403;28;20304;-54
2022/01/08 11:13:58;;;;;;;15.65;4.82;;;;;;;;;;5027227;28;20068;-52
2022/01/08 11:16:25;;;;;;;13.70;4.93;;;;;;;;;;5023195;28;20053;-56
2022/01/08 11:18:52;;;;;;;11.27;4.55;;;;;;;;;;5026477;28;20053;-55
2022/01/08 11:21:18;;;;;;;10.35;3.47;;;;;;;;;;5021474;28;20060;-56
2022/01/08 11:23:47;;;;;;;13.10;3.83;;;;;;;;;;5025484;28;20152;-55
2022/01/08 11:26:13;;;;;;;16.38;4.88;;;;;;;;;;5022957;28;20092;-56
2022/01/08 11:28:41;;;;;;;13.38;3.47;;;;;;;;;;5026710;28;20087;-53
2022/01/08 11:31:11;;;;;;;9.95;4.15;;;;;;;;;;5022804;28;20053;-54
2022/01/08 11:33:42;;;;;;;13.80;4.47;;;;;;;;;;5026484;28;20053;-53
2022/01/08 11:36:13;;;;;;;11.98;4.20;;;;;;;;;;5026865;28;20107;-51
2022/01/08 11:38:43;;;;;;;16.65;4.68;;;;;;;;;;5025759;28;20057;-59
2022/01/08 11:41:11;;;;;;;13.77;5.00;;;;;;;;;;5022672;28;20061;-55
2022/01/08 11:43:38;;;;;;;12.97;4.80;;;;;;;;;;5025358;28;20049;-54
2022/01/08 11:46:06;;;;;;;11.68;4.80;;;;;;;;;;5022655;28;20312;-56
2022/01/08 11:48:37;;;;;;;14.52;4.78;;;;;;;;;;5025968;28;20191;-52
2022/01/08 11:51:05;;;;;;;14.95;5.22;;;;;;;;;;5021963;28;20412;-55
2022/01/08 11:53:33;;;;;;;13.77;4.03;;;;;;;;;;5025858;28;20064;-54
2022/01/08 11:56:01;;;;;;;18.15;5.68;;;;;;;;;;5037045;28;20407;-58
2022/01/08 11:58:31;;;;;;;13.82;5.03;;;;;;;;;;5042535;28;20046;-59
2022/01/08 12:00:59;;;;;;;12.68;4.72;;;;;;;;;;5025949;28;20049;-60
2022/01/08 12:03:31;;;;;;;17.27;6.47;;;;;;;;;;5030654;28;20060;-53
2022/01/08 12:05:57;;;;;;;16.13;6.18;;;;;;;;;;5044935;28;20314;-48
2022/01/08 12:08:45;;;;;;;8.07;2.65;;;;;;;;;;5040224;28;20152;-54
2022/01/08 12:11:11;;;;;;;18.95;6.68;;;;;;;;;;5025376;28;20084;-59
2022/01/08 12:13:44;;;;;;;13.60;5.47;;;;;;;;;;5021356;28;20061;-57
2022/01/08 12:16:30;;;;;;;17.25;5.45;;;;;;;;;;5025510;28;20053;-55
2022/01/08 12:18:56;;;;;;;12.93;4.60;;;;;;;;;;5039705;28;20059;-56
2022/01/08 12:21:36;;;;;;;13.80;4.88;;;;;;;;;;5045443;28;20060;-53
2022/01/08 12:24:32;;;;;;;17.48;5.45;;;;;;;;;;5022989;28;20068;-53
2022/01/08 12:26:59;;;;;;;13.70;3.38;;;;;;;;;;5042380;28;20064;-54
2022/01/08 12:29:34;;;;;;;15.18;4.18;;;;;;;;;;5056807;28;20073;-55
2022/01/08 12:32:15;;;;;;;11.85;3.75;;;;;;;;;;5044919;28;20052;-55
2022/01/08 12:34:49;;;;;;;12.57;3.97;;;;;;;;;;5039787;28;20142;-55
2022/01/08 12:37:16;;;;;;;10.50;4.10;;;;;;;;;;5045283;28;20135;-53
2022/01/08 12:39:53;;;;;;;10.80;4.07;;;;;;;;;;5040663;28;20044;-50
2022/01/08 12:42:33;;;;;;;11.18;3.78;;;;;;;;;;5025346;28;20099;-54
2022/01/08 12:45:02;;;;;;;6.65;2.38;;;;;;;;;;5021385;28;20061;-53
2022/01/08 12:47:47;;;;;;;11.00;3.65;;;;;;;;;;5024957;28;20132;-53
2022/01/08 12:50:17;;;;;;;14.77;3.85;;;;;;;;;;5040322;28;20076;-56
2022/01/08 12:52:59;;;;;;;9.98;4.35;;;;;;;;;;5045783;28;20067;-53
2022/01/08 12:55:25;;;;;;;7.30;2.58;;;;;;;;;;5022742;28;20053;-54
2022/01/08 12:57:54;;;;;;;8.32;3.05;;;;;;;;;;5027371;28;20053;-54
2022/01/08 13:00:22;;;;;;;10.65;3.00;;;;;;;;;;5021859;28;20052;-56
2022/01/08 13:02:49;;;;;;;7.88;2.58;;;;;;;;;;5040722;28;20384;-57
2022/01/08 13:05:16;;;;;;;11.23;3.15;;;;;;;;;;5020862;28;20053;-55
2022/01/08 13:07:47;;;;;;;12.15;3.97;;;;;;;;;;5041003;28;20053;-53
2022/01/08 13:10:14;;;;;;;8.77;2.78;;;;;;;;;;5020468;28;20049;-53
2022/01/08 13:12:40;;;;;;;8.13;2.22;;;;;;;;;;5024943;28;20130;-54
2022/01/08 13:15:11;;;;;;;10.95;3.20;;;;;;;;;;5020440;28;20145;-56
2022/01/08 13:17:39;;;;;;;4.65;1.70;;;;;;;;;;5017248;28;20057;-57
2022/01/08 13:20:06;;;;;;;6.57;2.75;;;;;;;;;;5020460;28;20049;-55
2022/01/08 13:22:35;;;;;;;2.75;1.27;;;;;;;;;;5024307;28;20057;-59
2022/01/08 13:25:02;;;;;;;3.90;1.80;;;;;;;;;;5021266;28;20116;-57
2022/01/08 13:27:28;;;;;;;6.25;2.50;;;;;;;;;;5024277;28;20084;-56
2022/01/08 13:29:55;;;;;;;8.73;2.45;;;;;;;;;;5020365;28;20049;-59
2022/01/08 13:32:23;;;;;;;10.43;2.35;;;;;;;;;;5022060;28;20057;-57
2022/01/08 13:34:52;;;;;;;6.35;2.40;;;;;;;;;;5027031;28;20053;-54
2022/01/08 13:37:19;;;;;;;8.00;2.42;;;;;;;;;;5023320;28;20135;-59
2022/01/08 13:39:47;;;;;;;13.32;2.53;;;;;;;;;;5031192;28;20060;-58
2022/01/08 13:42:15;;;;;;;10.48;2.20;;;;;;;;;;5018839;28;20057;-56
2022/01/08 13:44:43;;;;;;;7.22;2.30;;;;;;;;;;5023646;28;20127;-56
2022/01/08 13:47:23;;;;;;;7.20;1.88;;;;;;;;;;5021253;28;20049;-55
2022/01/08 13:49:53;;;;;;;4.32;1.83;;;;;;;;;;5036777;28;20049;-57
2022/01/08 13:52:27;;;;;;;6.13;1.92;;;;;;;;;;5023131;28;20056;-59
2022/01/08 13:55:07;;;;;;;3.75;1.50;;;;;;;;;;5019204;28;20068;-59
2022/01/08 13:57:34;;;;;;;5.43;1.80;;;;;;;;;;5023108;28;20145;-58
2022/01/08 14:00:10;;;;;;;7.97;2.35;;;;;;;;;;5031949;28;20057;-57
2022/01/08 14:02:37;;;;;;;7.68;1.80;;;;;;;;;;5025276;28;20080;-57
2022/01/08 14:05:05;;;;;;;6.90;2.03;;;;;;;;;;5042118;28;20053;-57
2022/01/08 14:07:32;;;;;;;;;;;;;;;;;;5025745;28;20049;-57
2022/01/08 14:09:58;;;;;;;7.53;1.50;;;;;;;;;;5030256;28;19924;-59
2022/01/08 14:12:28;;;;;;;6.45;1.60;;;;;;;;;;5019382;28;20060;-55
2022/01/08 14:14:55;;;;;;;5.22;1.63;;;;;;;;;;5029853;28;20057;-56
2022/01/08 14:17:22;;;;;;;7.45;1.80;;;;;;;;;;5027805;28;20060;-60
2022/01/08 14:19:49;;;;;;;3.58;1.33;;;;;;;;;;5032320;28;20054;-57
2022/01/08 14:22:24;;;;;;;3.30;1.40;;;;;;;;;;5025803;28;20048;-57
2022/01/08 14:24:51;;;;;;;3.20;1.20;;;;;;;;;;5030274;28;20061;-56
2022/01/08 14:27:19;;;;;;;1.77;0.82;;;;;;;;;;5026107;28;20045;-53
2022/01/08 14:29:47;;;;;;;5.07;1.27;;;;;;;;;;5028393;28;20060;-55
2022/01/08 14:32:15;;;;;;;3.15;1.08;;;;;;;;;;5025434;28;20079;-56
2022/01/08 14:34:48;;;;;;;5.43;1.20;;;;;;;;;;5029999;28;20053;-56
2022/01/08 14:37:28;;;;;;;9.15;1.33;;;;;;;;;;5003937;28;20055;-57
2022/01/08 14:39:55;;;;;;;2.10;1.08;;;;;;;;;;5029618;28;20080;-54
2022/01/08 14:42:27;;;;;;;2.70;1.02;;;;;;;;;;5037452;28;20061;-57
2022/01/08 14:44:55;;;;;;;3.97;1.20;;;;;;;;;;5027902;28;20084;-57
2022/01/08 14:47:32;;;;;;;3.33;0.90;;;;;;;;;;5028895;28;20124;-57
2022/01/08 14:49:58;;;;;;;2.42;0.98;;;;;;;;;;5019115;28;20060;-54
2022/01/08 14:52:25;;;;;;;4.25;1.15;;;;;;;;;;5014788;28;20045;-60
2022/01/08 14:54:53;;;;;;;1.92;0.65;;;;;;;;;;5034446;28;20060;-58
2022/01/08 14:57:19;;;;;;;2.28;1.02;;;;;;;;;;5028397;28;20136;-52
2022/01/08 14:59:46;;;;;;;5.18;1.30;;;;;;;;;;5024377;28;20073;-56